Time;durP1;ratioP1;P1;durP2;ratioP2;P2;SDS_P1;SDS_P2;PMS_P1;PMS_P2;Temp;Humidity;BMP_temperature;BMP_pressure;BME280_temperature;BME280_humidity;BME280_pressure;Samples;Min_cycle;Max_cycle;Signal;HPM_P1;HPM_P2
2020/12/16 00:01:52;;;;;;;29.23;15.63;;;6.20;99.90;;;;;;5020105;28;22082;-39
2020/12/16 00:04:18;;;;;;;32.30;16.17;;;6.20;99.90;;;;;;5023460;28;20398;-37
2020/12/16 00:06:44;;;;;;;31.25;17.40;;;6.20;99.90;;;;;;5037808;28;20040;-37
2020/12/16 00:09:09;;;;;;;40.00;17.52;;;6.10;99.90;;;;;;5033219;28;20017;-38
2020/12/16 00:11:36;;;;;;;32.38;16.58;;;6.10;99.90;;;;;;5054417;28;20033;-37
2020/12/16 00:14:02;;;;;;;35.95;15.98;;;6.10;99.90;;;;;;5034143;28;20029;-38
2020/12/16 00:16:27;;;;;;;29.73;16.05;;;6.20;99.90;;;;;;5029089;28;20041;-39
2020/12/16 00:18:53;;;;;;;26.23;15.60;;;6.10;99.90;;;;;;5031795;28;20029;-37
2020/12/16 00:21:22;;;;;;;31.73;17.13;;;6.10;99.90;;;;;;5047553;28;20037;-38
2020/12/16 00:23:48;;;;;;;28.50;16.95;;;6.10;99.90;;;;;;5017363;28;20383;-37
2020/12/16 00:26:14;;;;;;;32.83;16.92;;;6.10;99.90;;;;;;5038259;28;20037;-38
2020/12/16 00:28:41;;;;;;;35.00;17.05;;;6.00;99.90;;;;;;5033779;28;20056;-37
2020/12/16 00:31:07;;;;;;;27.17;17.33;;;6.00;99.90;;;;;;5033568;28;20650;-38
2020/12/16 00:33:33;;;;;;;26.55;16.83;;;6.00;99.90;;;;;;5015798;28;20041;-38
2020/12/16 00:35:59;;;;;;;30.63;17.52;;;6.00;99.90;;;;;;5037179;28;20061;-38
2020/12/16 00:38:25;;;;;;;31.45;16.88;;;6.00;99.90;;;;;;5029316;28;20034;-38
2020/12/16 00:40:50;;;;;;;32.90;17.60;;;6.00;99.90;;;;;;5031839;28;20035;-37
2020/12/16 00:43:16;;;;;;;33.60;18.70;;;6.00;99.90;;;;;;5027649;28;20038;-38
2020/12/16 00:45:41;;;;;;;27.27;17.30;;;6.00;99.90;;;;;;5026065;28;20544;-37
2020/12/16 00:48:07;;;;;;;32.33;17.50;;;6.00;99.90;;;;;;5024080;28;20069;-38
2020/12/16 00:50:32;;;;;;;29.42;17.38;;;6.00;99.90;;;;;;5013657;28;20037;-38
2020/12/16 00:52:59;;;;;;;29.63;17.17;;;6.00;99.90;;;;;;5027938;28;20037;-37
2020/12/16 00:55:25;;;;;;;33.20;18.52;;;5.90;99.90;;;;;;5033232;28;20057;-38
2020/12/16 00:57:50;;;;;;;38.20;19.40;;;5.70;99.90;;;;;;5031490;28;20065;-38
2020/12/16 01:00:17;;;;;;;34.08;17.40;;;5.70;99.90;;;;;;5026556;28;20457;-38
2020/12/16 01:02:44;;;;;;;33.78;19.25;;;5.70;99.90;;;;;;5028990;28;20120;-36
2020/12/16 01:05:11;;;;;;;35.28;19.20;;;5.70;99.90;;;;;;5027899;28;20449;-37
2020/12/16 01:07:41;;;;;;;39.40;20.50;;;5.70;99.90;;;;;;5014114;28;20029;-37
2020/12/16 01:10:08;;;;;;;37.58;20.33;;;5.60;99.90;;;;;;5030270;28;20029;-37
2020/12/16 01:12:39;;;;;;;38.03;22.05;;;5.50;99.90;;;;;;5032199;28;20486;-38
2020/12/16 01:15:10;;;;;;;41.13;21.95;;;5.40;99.90;;;;;;5028252;28;20112;-38
2020/12/16 01:17:43;;;;;;;38.75;21.70;;;5.40;99.90;;;;;;5045116;28;20490;-38
2020/12/16 01:20:10;;;;;;;34.40;21.25;;;5.40;99.90;;;;;;5030706;28;20088;-37
2020/12/16 01:22:43;;;;;;;35.95;19.50;;;5.50;99.90;;;;;;5032495;28;20037;-40
2020/12/16 01:25:17;;;;;;;37.85;19.08;;;5.50;99.90;;;;;;5031643;28;20506;-41
2020/12/16 01:27:43;;;;;;;38.83;22.25;;;5.50;99.90;;;;;;5038979;28;20455;-36
2020/12/16 01:30:10;;;;;;;41.17;21.25;;;5.50;99.90;;;;;;5032054;28;20061;-38
2020/12/16 01:32:38;;;;;;;31.42;19.23;;;5.50;99.90;;;;;;5031762;28;20410;-38
2020/12/16 01:35:08;;;;;;;40.10;20.92;;;5.60;99.90;;;;;;5026987;28;20033;-44
2020/12/16 01:37:35;;;;;;;46.55;21.10;;;5.50;99.90;;;;;;5030823;28;20021;-37
2020/12/16 01:40:02;;;;;;;39.92;21.45;;;5.60;99.90;;;;;;5031898;28;20029;-40
2020/12/16 01:42:28;;;;;;;35.97;20.83;;;5.60;99.90;;;;;;5031105;28;20029;-37
2020/12/16 01:44:53;;;;;;;39.20;21.17;;;5.60;99.90;;;;;;5024322;28;20045;-38
2020/12/16 01:47:19;;;;;;;41.95;21.35;;;5.60;99.90;;;;;;5029941;28;20132;-38
2020/12/16 01:49:45;;;;;;;42.60;22.83;;;5.60;99.90;;;;;;5030763;28;20029;-39
2020/12/16 01:52:15;;;;;;;40.15;21.40;;;5.70;99.90;;;;;;5032360;28;20049;-37
2020/12/16 01:54:42;;;;;;;39.60;20.05;;;5.70;99.90;;;;;;5033079;28;20068;-37
2020/12/16 01:57:11;;;;;;;42.10;20.70;;;5.80;99.90;;;;;;5017221;28;20075;-36
2020/12/16 01:59:39;;;;;;;41.08;21.08;;;5.80;99.90;;;;;;5013441;28;20348;-37
2020/12/16 02:02:07;;;;;;;48.63;24.65;;;5.80;99.90;;;;;;4996090;28;20113;-37
2020/12/16 02:04:41;;;;;;;45.95;23.02;;;5.80;99.90;;;;;;5007059;28;20033;-36
2020/12/16 02:07:10;;;;;;;45.40;22.35;;;5.80;99.90;;;;;;5014498;28;20026;-36
2020/12/16 02:09:46;;;;;;;43.75;23.70;;;5.90;99.90;;;;;;5022814;28;20049;-39
2020/12/16 02:12:18;;;;;;;50.95;24.70;;;5.90;99.90;;;;;;5030066;28;20029;-37
2020/12/16 02:14:44;;;;;;;52.97;23.08;;;5.90;99.90;;;;;;5027074;28;20059;-38
2020/12/16 02:17:11;;;;;;;49.20;24.35;;;5.90;99.90;;;;;;5028825;28;20065;-37
2020/12/16 02:19:42;;;;;;;52.95;27.08;;;5.90;99.90;;;;;;5025770;28;20033;-37
2020/12/16 02:22:10;;;;;;;57.35;25.85;;;5.90;99.90;;;;;;5031251;28;20092;-38
2020/12/16 02:24:59;;;;;;;50.70;25.15;;;6.00;99.90;;;;;;5015459;28;20030;-40
2020/12/16 02:27:26;;;;;;;52.55;26.30;;;5.90;99.90;;;;;;5034660;28;20046;-37
2020/12/16 02:29:52;;;;;;;53.40;25.48;;;5.90;99.90;;;;;;5024389;28;20140;-38
2020/12/16 02:32:18;;;;;;;53.85;26.52;;;5.90;99.90;;;;;;5028671;28;20112;-37
2020/12/16 02:34:44;;;;;;;56.53;27.83;;;5.90;99.90;;;;;;5029553;28;20021;-37
2020/12/16 02:37:10;;;;;;;54.50;24.90;;;5.90;99.90;;;;;;5012154;28;20045;-39
2020/12/16 02:39:36;;;;;;;59.97;27.58;;;5.70;99.90;;;;;;5010491;28;20533;-37
2020/12/16 02:42:04;;;;;;;57.22;27.60;;;5.80;99.90;;;;;;5009358;28;20120;-39
2020/12/16 02:44:29;;;;;;;53.80;25.60;;;5.80;99.90;;;;;;5021651;28;20133;-37
2020/12/16 02:46:59;;;;;;;61.50;25.58;;;5.80;99.90;;;;;;5017906;28;20096;-38
2020/12/16 02:49:25;;;;;;;61.08;27.75;;;5.70;99.90;;;;;;5002135;28;20026;-39
2020/12/16 02:51:51;;;;;;;55.00;27.58;;;5.70;99.90;;;;;;5018969;28;20037;-38
2020/12/16 02:54:17;;;;;;;57.97;27.75;;;5.70;99.90;;;;;;4993450;28;20037;-37
2020/12/16 02:56:50;;;;;;;63.83;28.70;;;5.60;99.90;;;;;;5010149;28;20038;-37
2020/12/16 02:59:16;;;;;;;54.67;27.80;;;5.60;99.90;;;;;;5010427;28;20403;-37
2020/12/16 03:01:42;;;;;;;60.33;28.58;;;5.60;99.90;;;;;;5027641;28;20421;-39
2020/12/16 03:04:08;;;;;;;55.97;27.83;;;5.50;99.90;;;;;;5008680;28;20049;-37
2020/12/16 03:06:33;;;;;;;52.08;27.25;;;5.50;99.90;;;;;;4991819;28;20031;-38
2020/12/16 03:08:59;;;;;;;59.55;28.65;;;5.50;99.90;;;;;;5012559;28;20030;-37
2020/12/16 03:11:24;;;;;;;61.55;29.02;;;5.50;99.90;;;;;;5011854;28;20363;-38
2020/12/16 03:13:50;;;;;;;53.63;27.67;;;5.40;99.90;;;;;;5006151;28;20394;-36
2020/12/16 03:16:19;;;;;;;54.53;27.15;;;5.50;99.90;;;;;;5016781;28;20040;-37
2020/12/16 03:18:45;;;;;;;54.30;27.98;;;5.40;99.90;;;;;;5025483;28;20030;-37
2020/12/16 03:21:11;;;;;;;56.67;27.10;;;5.50;99.90;;;;;;5028302;28;20076;-37
2020/12/16 03:23:36;;;;;;;59.75;27.38;;;5.50;99.90;;;;;;5002856;28;20050;-37
2020/12/16 03:26:05;;;;;;;57.35;27.27;;;5.50;99.90;;;;;;5003451;28;20042;-37
2020/12/16 03:28:31;;;;;;;61.20;28.23;;;5.50;99.90;;;;;;5025281;28;20022;-37
2020/12/16 03:30:56;;;;;;;59.90;29.67;;;5.50;99.90;;;;;;5018420;28;20042;-37
2020/12/16 03:33:22;;;;;;;64.85;29.92;;;5.60;99.90;;;;;;5007334;28;20048;-36
2020/12/16 03:35:48;;;;;;;70.15;29.17;;;5.60;99.90;;;;;;5015717;28;20053;-37
2020/12/16 03:38:13;;;;;;;63.65;30.33;;;5.50;99.90;;;;;;5029484;28;20137;-37
2020/12/16 03:40:39;;;;;;;72.38;29.75;;;5.50;99.90;;;;;;5019129;28;20048;-37
2020/12/16 03:43:05;;;;;;;72.13;30.58;;;5.50;99.90;;;;;;5020622;28;20386;-37
2020/12/16 03:45:30;;;;;;;63.75;29.98;;;5.50;99.90;;;;;;5021627;28;20037;-37
2020/12/16 03:47:56;;;;;;;57.58;29.65;;;5.60;99.90;;;;;;5030205;28;20106;-37
2020/12/16 03:50:21;;;;;;;63.13;29.75;;;5.50;99.90;;;;;;5028612;28;20037;-38
2020/12/16 03:52:47;;;;;;;59.05;28.15;;;5.50;99.90;;;;;;5029311;28;20081;-38
2020/12/16 03:55:12;;;;;;;72.07;31.98;;;5.50;99.90;;;;;;5016419;28;20034;-37
2020/12/16 03:57:38;;;;;;;69.18;31.55;;;5.50;99.90;;;;;;5028392;28;20029;-39
2020/12/16 04:00:10;;;;;;;69.63;29.88;;;5.50;99.90;;;;;;5022819;28;20462;-37
2020/12/16 04:02:36;;;;;;;61.85;29.27;;;5.60;99.90;;;;;;5028409;28;20048;-37
2020/12/16 04:05:02;;;;;;;67.90;33.00;;;5.70;99.90;;;;;;5020699;28;20049;-38
2020/12/16 04:07:28;;;;;;;63.47;30.70;;;5.70;99.90;;;;;;5017788;28;20064;-37
2020/12/16 04:09:54;;;;;;;81.65;38.03;;;5.80;99.90;;;;;;5030108;28;20104;-37
2020/12/16 04:12:20;;;;;;;82.85;34.88;;;5.80;99.90;;;;;;5041850;28;20607;-37
2020/12/16 04:14:45;;;;;;;110.55;38.38;;;5.80;99.90;;;;;;5026557;28;20032;-37
2020/12/16 04:17:11;;;;;;;105.78;40.30;;;6.00;99.90;;;;;;5028036;28;20082;-37
2020/12/16 04:19:36;;;;;;;104.35;43.20;;;6.00;99.90;;;;;;5030104;28;20259;-37
2020/12/16 04:22:02;;;;;;;113.15;44.17;;;6.00;99.90;;;;;;5042531;28;20044;-38
2020/12/16 04:24:28;;;;;;;100.97;41.97;;;6.10;99.90;;;;;;5029435;28;20044;-37
2020/12/16 04:26:53;;;;;;;106.28;43.28;;;6.10;99.90;;;;;;5014346;28;20044;-37
2020/12/16 04:29:19;;;;;;;106.50;44.25;;;6.10;99.90;;;;;;5032844;28;20033;-37
2020/12/16 04:31:49;;;;;;;92.15;37.78;;;6.10;99.90;;;;;;5013375;28;20076;-37
2020/12/16 04:34:15;;;;;;;102.22;39.53;;;6.10;99.90;;;;;;5026323;28;20025;-36
2020/12/16 04:36:41;;;;;;;96.10;38.78;;;6.10;99.90;;;;;;5039565;28;20489;-37
2020/12/16 04:39:06;;;;;;;96.72;36.83;;;6.10;99.90;;;;;;5012126;28;20395;-37
2020/12/16 04:41:32;;;;;;;95.32;36.72;;;6.10;99.90;;;;;;5014227;28;20034;-38
2020/12/16 04:43:59;;;;;;;89.03;35.20;;;6.10;99.90;;;;;;5010715;28;20116;-38
2020/12/16 04:46:31;;;;;;;115.20;43.50;;;6.20;99.90;;;;;;5013123;28;20038;-38
2020/12/16 04:48:57;;;;;;;104.43;38.63;;;6.10;99.90;;;;;;5011513;28;20600;-37
2020/12/16 04:51:25;;;;;;;131.60;46.25;;;6.10;99.90;;;;;;5012867;28;20054;-37
2020/12/16 04:53:53;;;;;;;126.80;44.20;;;6.10;99.90;;;;;;5010567;28;20037;-36
2020/12/16 04:56:19;;;;;;;138.77;44.95;;;6.10;99.90;;;;;;4976879;28;20124;-37
2020/12/16 04:58:45;;;;;;;132.60;41.13;;;6.10;99.90;;;;;;5010184;28;20022;-36
2020/12/16 05:01:11;;;;;;;95.47;32.75;;;6.10;99.90;;;;;;4992549;28;20030;-37
2020/12/16 05:03:39;;;;;;;124.63;46.95;;;6.20;99.90;;;;;;5001641;28;20487;-39
2020/12/16 05:06:04;;;;;;;129.60;50.78;;;6.10;99.90;;;;;;4994592;28;20038;-40
2020/12/16 05:08:30;;;;;;;122.05;44.83;;;6.10;99.90;;;;;;5012279;28;20018;-38
2020/12/16 05:10:55;;;;;;;106.50;39.15;;;6.10;99.90;;;;;;5005326;28;20169;-37
2020/12/16 05:13:24;;;;;;;101.57;40.10;;;6.10;99.90;;;;;;5008026;28;20041;-37
2020/12/16 05:15:50;;;;;;;100.63;37.38;;;6.10;99.90;;;;;;5008120;28;20105;-38
2020/12/16 05:18:25;;;;;;;105.05;40.75;;;6.00;99.90;;;;;;4999034;28;20626;-36
2020/12/16 05:21:00;;;;;;;109.95;40.70;;;6.00;99.90;;;;;;5011853;28;20394;-37
2020/12/16 05:23:28;;;;;;;109.30;41.38;;;5.90;99.90;;;;;;5004298;28;20042;-37
2020/12/16 05:25:59;;;;;;;103.40;40.67;;;5.90;99.90;;;;;;5020748;28;20034;-38
2020/12/16 05:28:27;;;;;;;99.38;35.20;;;5.90;99.90;;;;;;5015265;28;20033;-37
2020/12/16 05:30:55;;;;;;;97.70;35.80;;;5.90;99.90;;;;;;4996999;28;20116;-48
2020/12/16 05:33:20;;;;;;;105.10;40.70;;;5.80;99.90;;;;;;5005530;28;20057;-48
2020/12/16 05:35:52;;;;;;;91.13;36.63;;;5.80;99.90;;;;;;5019387;28;20049;-48
2020/12/16 05:38:17;;;;;;;99.60;38.47;;;5.80;99.90;;;;;;5007751;28;20049;-48
2020/12/16 05:40:43;;;;;;;82.95;33.33;;;5.80;99.90;;;;;;5006841;28;20042;-48
2020/12/16 05:43:19;;;;;;;89.25;34.55;;;5.80;99.90;;;;;;5008794;28;20113;-48
2020/12/16 05:45:45;;;;;;;96.07;34.38;;;5.90;99.90;;;;;;5006687;28;20046;-47
2020/12/16 05:48:12;;;;;;;86.10;28.65;;;5.90;99.90;;;;;;5017864;28;20034;-48
2020/12/16 05:50:40;;;;;;;107.35;37.58;;;5.90;99.90;;;;;;5014122;28;20095;-43
2020/12/16 05:53:16;;;;;;;116.53;38.63;;;5.90;99.90;;;;;;5007720;28;20061;-48
2020/12/16 05:55:42;;;;;;;121.57;39.03;;;5.90;99.90;;;;;;4996512;28;20088;-47
2020/12/16 05:58:09;;;;;;;112.60;38.40;;;6.00;99.90;;;;;;4996009;28;20503;-48
2020/12/16 06:00:49;;;;;;;106.65;34.95;;;5.90;99.90;;;;;;4994682;28;20104;-45
2020/12/16 06:03:25;;;;;;;135.20;47.10;;;6.00;99.90;;;;;;5000162;28;20026;-48
2020/12/16 06:05:54;;;;;;;116.60;36.70;;;5.90;99.90;;;;;;4996878;28;20483;-45
2020/12/16 06:08:21;;;;;;;143.85;44.25;;;6.00;99.90;;;;;;5005120;28;20471;-48
2020/12/16 06:10:48;;;;;;;123.97;38.63;;;5.90;99.90;;;;;;5018955;28;20030;-47
2020/12/16 06:13:15;;;;;;;86.32;31.95;;;5.90;99.90;;;;;;5012950;28;20068;-47
2020/12/16 06:15:52;;;;;;;78.30;24.73;;;5.90;99.90;;;;;;5013167;28;20018;-48
2020/12/16 06:18:23;;;;;;;50.60;18.60;;;5.90;99.90;;;;;;5021940;28;20050;-47
2020/12/16 06:20:48;;;;;;;106.70;36.00;;;5.80;99.90;;;;;;5012596;28;20030;-46
2020/12/16 06:23:20;;;;;;;66.95;23.80;;;5.80;99.90;;;;;;5014447;28;20270;-47
2020/12/16 06:25:51;;;;;;;68.97;25.02;;;5.80;99.90;;;;;;5015442;28;20040;-47
2020/12/16 06:28:17;;;;;;;56.50;20.67;;;5.80;99.90;;;;;;5022494;28;20494;-47
2020/12/16 06:31:06;;;;;;;87.40;27.98;;;5.90;99.90;;;;;;5017002;28;20030;-47
2020/12/16 06:33:41;;;;;;;69.75;24.52;;;5.90;99.90;;;;;;4997001;28;20435;-47
2020/12/16 06:36:09;;;;;;;90.80;30.25;;;5.90;99.90;;;;;;4995804;28;20141;-47
2020/12/16 06:38:53;;;;;;;87.15;28.08;;;5.90;99.90;;;;;;4999291;28;20113;-47
2020/12/16 06:41:22;;;;;;;93.85;33.22;;;6.00;99.90;;;;;;4989367;28;20030;-47
2020/12/16 06:43:53;;;;;;;86.30;30.15;;;6.00;99.90;;;;;;4992982;28;21652;-46
2020/12/16 06:46:30;;;;;;;51.60;18.17;;;6.00;99.90;;;;;;4994083;28;20518;-47
2020/12/16 06:49:08;;;;;;;77.80;29.98;;;6.00;99.90;;;;;;4990453;28;20057;-47
2020/12/16 06:51:44;;;;;;;63.72;25.70;;;6.00;99.90;;;;;;4988330;28;20557;-48
2020/12/16 06:54:16;;;;;;;50.25;18.13;;;6.10;99.90;;;;;;4993386;28;20045;-48
2020/12/16 06:56:43;;;;;;;63.55;22.30;;;6.10;99.90;;;;;;4992307;28;20030;-47
2020/12/16 06:59:13;;;;;;;60.13;23.17;;;6.10;99.90;;;;;;4991408;28;20129;-47
2020/12/16 07:01:41;;;;;;;56.13;21.70;;;6.10;99.90;;;;;;4988671;28;20034;-47
2020/12/16 07:04:13;;;;;;;58.85;23.08;;;6.20;99.90;;;;;;4984306;28;20070;-47
2020/12/16 07:06:43;;;;;;;59.97;22.42;;;6.20;99.90;;;;;;4995438;28;20029;-47
2020/12/16 07:09:21;;;;;;;55.95;19.52;;;6.20;99.90;;;;;;4997295;28;20062;-47
2020/12/16 07:11:51;;;;;;;59.22;22.42;;;6.20;99.90;;;;;;5030509;28;20041;-47
2020/12/16 07:14:21;;;;;;;54.10;16.73;;;6.20;99.90;;;;;;5027170;28;20025;-46
2020/12/16 07:16:48;;;;;;;46.65;13.18;;;6.20;99.90;;;;;;5028826;28;20028;-47
2020/12/16 07:19:14;;;;;;;75.10;27.10;;;6.30;99.90;;;;;;5027453;28;20084;-48
2020/12/16 07:21:42;;;;;;;81.88;31.13;;;6.30;99.90;;;;;;5028201;28;20030;-47
2020/12/16 07:24:11;;;;;;;69.10;25.25;;;6.30;99.90;;;;;;5025346;28;20439;-47
2020/12/16 07:26:50;;;;;;;77.53;27.52;;;6.40;99.90;;;;;;5027938;28;20088;-46
2020/12/16 07:29:21;;;;;;;55.42;17.65;;;6.40;99.90;;;;;;5028226;28;20034;-47
2020/12/16 07:32:05;;;;;;;92.28;29.40;;;6.40;99.90;;;;;;5029497;28;20037;-47
2020/12/16 07:34:58;;;;;;;86.72;31.60;;;6.40;99.90;;;;;;5023375;28;20026;-47
2020/12/16 07:37:32;;;;;;;78.05;26.15;;;6.50;99.90;;;;;;4998496;28;20050;-46
2020/12/16 07:40:10;;;;;;;74.55;25.55;;;6.50;99.90;;;;;;5002640;28;20030;-47
2020/12/16 07:42:39;;;;;;;96.65;31.75;;;6.50;99.90;;;;;;4989444;28;20038;-47
2020/12/16 07:45:09;;;;;;;116.10;38.58;;;6.50;99.90;;;;;;4997205;28;20033;-47
2020/12/16 07:47:37;;;;;;;69.72;23.58;;;6.60;99.90;;;;;;4983673;28;20037;-47
2020/12/16 07:50:08;;;;;;;90.75;33.05;;;6.60;99.90;;;;;;5004639;28;20109;-47
2020/12/16 07:52:36;;;;;;;56.60;19.98;;;6.60;99.90;;;;;;5001796;28;20126;-45
2020/12/16 07:55:04;;;;;;;83.57;32.70;;;6.60;99.90;;;;;;5002059;28;20160;-47
2020/12/16 07:57:35;;;;;;;84.40;30.90;;;6.60;99.90;;;;;;4995576;28;20545;-47
2020/12/16 08:00:01;;;;;;;68.03;28.80;;;6.70;99.90;;;;;;5003105;28;20069;-47
2020/12/16 08:02:27;;;;;;;60.08;26.05;;;6.70;99.90;;;;;;5004308;28;20049;-47
2020/12/16 08:04:57;;;;;;;30.13;13.20;;;6.70;99.90;;;;;;4987303;28;20041;-47
2020/12/16 08:07:23;;;;;;;57.70;24.35;;;6.80;99.90;;;;;;5008831;28;20100;-48
2020/12/16 08:09:57;;;;;;;37.47;12.75;;;6.80;99.90;;;;;;5004411;28;20066;-47
2020/12/16 08:12:25;;;;;;;57.17;24.63;;;6.80;99.90;;;;;;4999552;28;20038;-47
2020/12/16 08:15:08;;;;;;;49.35;21.40;;;6.90;99.90;;;;;;5015446;28;20037;-47
2020/12/16 08:17:43;;;;;;;53.22;21.67;;;6.80;99.90;;;;;;5027840;28;20465;-48
2020/12/16 08:20:17;;;;;;;59.25;26.58;;;6.90;99.90;;;;;;5032229;28;20034;-47
2020/12/16 08:22:47;;;;;;;47.80;20.08;;;6.90;99.90;;;;;;5031625;28;20037;-45
2020/12/16 08:25:15;;;;;;;43.05;19.55;;;6.90;99.90;;;;;;5032836;28;20053;-46
2020/12/16 08:27:50;;;;;;;53.03;24.95;;;6.90;99.90;;;;;;5033838;28;20036;-47
2020/12/16 08:30:18;;;;;;;54.72;25.20;;;6.90;99.90;;;;;;5030791;28;20021;-47
2020/12/16 08:33:12;;;;;;;45.58;19.35;;;7.00;99.90;;;;;;5024152;28;20033;-47
2020/12/16 08:35:48;;;;;;;33.03;12.65;;;7.00;99.90;;;;;;5026958;28;20120;-47
2020/12/16 08:38:26;;;;;;;37.45;18.38;;;7.00;99.90;;;;;;5013273;28;20113;-47
2020/12/16 08:40:53;;;;;;;39.75;20.95;;;7.00;99.90;;;;;;5012192;28;20060;-47
2020/12/16 08:43:29;;;;;;;28.73;14.73;;;7.10;99.90;;;;;;5010682;28;20486;-47
2020/12/16 08:46:13;;;;;;;27.23;12.70;;;7.10;99.90;;;;;;4994709;28;20360;-47
2020/12/16 08:48:46;;;;;;;37.63;18.23;;;7.10;99.90;;;;;;5006497;28;20367;-48
2020/12/16 08:51:21;;;;;;;21.85;12.93;;;7.10;99.90;;;;;;5012499;28;20026;-47
2020/12/16 08:54:00;;;;;;;25.83;12.80;;;7.10;99.90;;;;;;5016433;28;20459;-47
2020/12/16 08:56:36;;;;;;;33.85;17.05;;;7.20;99.90;;;;;;5007139;28;20029;-47
2020/12/16 08:59:05;;;;;;;21.50;8.02;;;7.20;99.90;;;;;;5014772;28;20033;-47
2020/12/16 09:01:32;;;;;;;22.05;10.32;;;7.20;99.90;;;;;;5013215;28;20408;-47
2020/12/16 09:03:58;;;;;;;20.42;9.75;;;7.20;99.90;;;;;;5017202;28;20249;-47
2020/12/16 09:06:23;;;;;;;18.25;7.72;;;7.20;99.90;;;;;;5015300;28;20034;-47
2020/12/16 09:08:49;;;;;;;21.75;9.23;;;7.30;99.90;;;;;;5020663;28;20044;-47
2020/12/16 09:11:19;;;;;;;29.38;13.75;;;7.30;99.90;;;;;;5018194;28;20030;-47
2020/12/16 09:13:46;;;;;;;21.38;10.50;;;7.30;99.90;;;;;;5013677;28;20025;-45
2020/12/16 09:16:19;;;;;;;21.10;11.45;;;7.40;99.90;;;;;;4995639;28;20034;-47
2020/12/16 09:18:45;;;;;;;22.35;10.88;;;7.40;99.90;;;;;;5000965;28;20049;-48
2020/12/16 09:21:10;;;;;;;15.60;7.85;;;7.40;99.90;;;;;;5005319;28;20038;-47
2020/12/16 09:23:36;;;;;;;20.02;9.20;;;7.50;99.90;;;;;;5002149;28;20445;-48
2020/12/16 09:26:02;;;;;;;18.58;6.88;;;7.40;99.90;;;;;;4995193;28;20134;-39
2020/12/16 09:28:40;;;;;;;19.00;9.60;;;7.40;99.90;;;;;;5004014;28;20030;-37
2020/12/16 09:31:17;;;;;;;21.30;9.95;;;7.40;99.90;;;;;;4993497;28;20061;-38
2020/12/16 09:33:55;;;;;;;19.25;9.82;;;7.50;99.90;;;;;;5004014;28;20097;-38
2020/12/16 09:36:28;;;;;;;17.70;6.95;;;7.50;99.90;;;;;;5031847;28;20382;-37
2020/12/16 09:38:58;;;;;;;9.93;5.63;;;7.50;99.90;;;;;;5026863;28;20044;-35
2020/12/16 09:41:26;;;;;;;16.38;6.07;;;7.60;99.90;;;;;;5028587;28;20116;-37
2020/12/16 09:43:53;;;;;;;10.98;5.93;;;7.60;99.90;;;;;;5029701;28;20037;-38
2020/12/16 09:46:24;;;;;;;18.17;7.65;;;7.70;99.90;;;;;;5012128;28;20630;-38
2020/12/16 09:48:59;;;;;;;10.57;4.35;;;7.80;99.90;;;;;;5029209;28;20500;-38
2020/12/16 09:51:25;;;;;;;16.75;5.85;;;7.90;99.90;;;;;;5030206;28;20101;-39
2020/12/16 09:53:54;;;;;;;10.52;5.70;;;8.00;99.90;;;;;;5030741;28;20033;-39
2020/12/16 09:56:25;;;;;;;11.05;4.82;;;8.00;99.90;;;;;;5030923;28;20041;-38
2020/12/16 09:58:54;;;;;;;14.25;6.47;;;8.10;99.90;;;;;;5031542;28;20041;-38
2020/12/16 10:35:00;;;;;;;17.45;6.20;;;8.80;99.90;;;;;;4978166;28;20207;-38
2020/12/16 10:37:27;;;;;;;12.73;5.97;;;8.90;99.90;;;;;;4965497;28;20185;-38
2020/12/16 10:39:53;;;;;;;11.48;4.53;;;8.90;99.90;;;;;;4947753;28;20051;-41
2020/12/16 10:42:22;;;;;;;12.02;6.75;;;9.00;99.90;;;;;;5001319;28;20073;-42
2020/12/16 10:44:50;;;;;;;18.67;6.38;;;8.90;99.90;;;;;;5006617;28;20038;-39
2020/12/16 10:47:17;;;;;;;11.40;5.57;;;8.90;99.90;;;;;;4999645;28;20045;-38
2020/12/16 11:13:29;;;;;;;21.57;9.93;;;9.00;99.90;;;;;;4964171;28;20782;-40
2020/12/16 11:33:32;;;;;;;21.45;9.50;;;9.10;99.90;;;;;;4959366;28;20041;-38
2020/12/16 11:35:58;;;;;;;26.48;11.82;;;9.10;99.90;;;;;;4905722;29;20063;-38
2020/12/16 11:38:25;;;;;;;29.52;11.82;;;9.00;99.90;;;;;;4914924;29;20035;-38
2020/12/16 11:40:51;;;;;;;25.70;11.60;;;9.00;99.90;;;;;;4899148;29;20052;-38
2020/12/16 11:43:17;;;;;;;22.73;11.02;;;9.00;99.90;;;;;;4951711;29;20819;-37
2020/12/16 11:45:44;;;;;;;25.67;11.02;;;9.00;99.90;;;;;;4951872;29;20051;-38
2020/12/16 11:48:10;;;;;;;24.23;10.48;;;9.00;99.90;;;;;;4937128;28;20038;-38
2020/12/16 11:50:37;;;;;;;24.85;10.25;;;9.00;99.90;;;;;;4952863;29;20445;-38
2020/12/16 11:53:03;;;;;;;18.05;8.75;;;9.00;99.90;;;;;;4951085;28;20569;-38
2020/12/16 11:55:29;;;;;;;18.08;7.97;;;9.00;99.90;;;;;;4952393;28;20488;-38
2020/12/16 11:57:56;;;;;;;23.05;9.48;;;9.00;99.90;;;;;;4952438;28;20039;-38
2020/12/16 12:00:23;;;;;;;27.52;11.05;;;9.00;99.90;;;;;;4950711;28;20164;-38
2020/12/16 12:02:50;;;;;;;25.58;11.20;;;9.00;99.90;;;;;;4951414;28;20488;-38
2020/12/16 12:05:17;;;;;;;17.67;8.77;;;9.00;99.90;;;;;;4950240;28;20047;-38
2020/12/16 12:07:45;;;;;;;22.70;10.95;;;8.90;99.90;;;;;;4952134;28;20027;-37
2020/12/16 12:10:11;;;;;;;22.90;10.68;;;8.90;99.90;;;;;;4952229;28;20042;-38
2020/12/16 12:12:38;;;;;;;25.85;12.80;;;9.00;99.90;;;;;;4989595;28;20049;-38
2020/12/16 12:15:04;;;;;;;26.63;12.80;;;9.00;99.90;;;;;;5012657;28;20372;-37
2020/12/16 12:17:30;;;;;;;30.80;11.25;;;9.00;99.90;;;;;;5013475;28;20430;-38
2020/12/16 12:19:57;;;;;;;26.23;13.50;;;9.00;99.90;;;;;;5011304;28;20034;-38
2020/12/16 12:22:24;;;;;;;24.38;12.50;;;9.00;99.90;;;;;;5012699;28;20033;-37
2020/12/16 12:24:50;;;;;;;25.45;12.25;;;9.00;99.90;;;;;;5006578;28;20117;-38
2020/12/16 12:27:22;;;;;;;18.88;9.65;;;8.90;99.90;;;;;;5013359;28;20048;-38
2020/12/16 12:29:48;;;;;;;;;;;8.90;99.90;;;;;;5012598;28;20057;-37
2020/12/16 12:32:14;;;;;;;25.60;11.20;;;8.90;99.90;;;;;;5012976;28;19913;-38
2020/12/16 12:34:46;;;;;;;25.95;12.90;;;9.00;99.90;;;;;;5012223;28;20045;-38
2020/12/16 12:37:13;;;;;;;27.48;11.63;;;9.00;99.90;;;;;;5031810;28;20135;-38
2020/12/16 12:49:46;;;;;;;26.85;14.00;;;9.30;99.90;;;;;;5023436;28;20053;-40
2020/12/16 12:52:12;;;;;;;21.30;12.13;;;9.30;99.90;;;;;;5034587;28;20538;-38
2020/12/16 12:54:44;;;;;;;23.33;11.55;;;9.30;99.90;;;;;;5040875;28;20033;-40
2020/12/16 12:57:09;;;;;;;24.80;11.10;;;9.40;99.90;;;;;;5032933;28;20034;-43
2020/12/16 12:59:38;;;;;;;24.85;10.90;;;9.40;99.90;;;;;;5032033;28;20033;-38
2020/12/16 13:02:06;;;;;;;23.65;11.07;;;9.40;99.90;;;;;;5032223;28;20064;-39
2020/12/16 13:08:41;;;;;;;20.58;10.18;;;9.40;99.90;;;;;;5032298;28;20027;-39
2020/12/16 13:17:51;;;;;;;13.50;7.90;;;9.60;99.90;;;;;;5037710;28;20052;-38
2020/12/16 13:20:16;;;;;;;15.10;7.63;;;9.70;99.90;;;;;;5043935;28;20463;-38
2020/12/16 13:22:42;;;;;;;19.67;8.45;;;9.80;99.90;;;;;;5024109;28;20079;-37
2020/12/16 13:25:07;;;;;;;19.65;8.65;;;9.80;99.90;;;;;;5048691;28;20034;-39
2020/12/16 13:27:33;;;;;;;16.40;7.10;;;9.70;99.90;;;;;;5035149;28;20055;-38
2020/12/16 13:29:59;;;;;;;14.02;6.95;;;9.70;99.90;;;;;;5032218;28;20037;-38
2020/12/16 13:32:24;;;;;;;14.32;6.78;;;9.70;99.90;;;;;;5020796;28;20090;-38
2020/12/16 13:34:50;;;;;;;15.13;7.80;;;9.60;99.90;;;;;;5032307;28;20117;-37
2020/12/16 13:37:16;;;;;;;14.73;6.80;;;9.70;99.90;;;;;;5038358;28;20088;-38
2020/12/16 13:39:43;;;;;;;18.80;7.00;;;9.70;99.90;;;;;;5029221;28;20025;-39
2020/12/16 13:42:10;;;;;;;13.02;6.35;;;9.60;99.90;;;;;;5030698;28;20553;-38
2020/12/16 13:44:37;;;;;;;13.43;6.43;;;9.60;99.90;;;;;;5019643;28;20029;-38
2020/12/16 13:47:06;;;;;;;14.90;7.47;;;9.60;99.90;;;;;;5019139;28;20032;-37
2020/12/16 13:49:33;;;;;;;14.00;7.15;;;9.60;99.90;;;;;;5029557;28;20088;-36
2020/12/16 13:52:01;;;;;;;12.90;6.95;;;9.60;99.90;;;;;;5030882;28;20029;-37
2020/12/16 13:54:29;;;;;;;13.85;6.55;;;9.60;99.90;;;;;;5025191;28;20033;-36
2020/12/16 13:56:56;;;;;;;14.15;7.38;;;9.60;99.90;;;;;;5037398;28;20037;-36
2020/12/16 13:59:24;;;;;;;16.98;6.93;;;9.60;99.90;;;;;;5028077;28;20112;-38
2020/12/16 14:01:51;;;;;;;16.17;6.07;;;9.50;99.90;;;;;;5030936;28;20038;-38
2020/12/16 14:04:16;;;;;;;14.10;6.93;;;9.50;99.90;;;;;;5008751;28;20025;-36
2020/12/16 14:06:42;;;;;;;12.50;6.82;;;9.50;99.90;;;;;;5027126;28;20564;-36
2020/12/16 14:09:08;;;;;;;15.85;6.38;;;9.60;99.90;;;;;;5030198;28;20307;-38
2020/12/16 14:11:34;;;;;;;13.77;6.72;;;9.60;99.90;;;;;;5011706;28;20096;-37
2020/12/16 14:13:59;;;;;;;12.98;6.95;;;9.70;99.90;;;;;;5018496;28;20037;-36
2020/12/16 14:16:26;;;;;;;14.90;7.15;;;9.60;99.90;;;;;;5029101;28;20466;-36
2020/12/16 14:18:52;;;;;;;16.00;8.35;;;9.60;99.90;;;;;;5025889;28;20044;-36
2020/12/16 14:21:19;;;;;;;16.08;7.35;;;9.50;99.90;;;;;;5013780;28;20049;-37